createdAt,value
2022-07-27T00:01:18.253Z,17.40
2022-07-27T00:03:20.464Z,17.40
2022-07-27T00:05:22.974Z,17.30
2022-07-27T00:07:24.965Z,17.30
2022-07-27T00:09:26.907Z,17.30
2022-07-27T00:11:28.651Z,17.20
2022-07-27T00:13:30.925Z,17.20
2022-07-27T00:15:34.798Z,17.10
2022-07-27T00:17:36.893Z,17.10
2022-07-27T00:19:38.837Z,17.10
2022-07-27T00:21:44.420Z,17.10
2022-07-27T00:23:46.892Z,17.10
2022-07-27T00:25:48.902Z,17.10
2022-07-27T00:27:50.838Z,17.10
2022-07-27T00:29:52.706Z,17.00
2022-07-27T00:31:54.935Z,17.00
2022-07-27T00:33:56.923Z,17.00
2022-07-27T00:35:59.079Z,17.00
2022-07-27T00:38:00.875Z,17.00
2022-07-27T00:40:02.834Z,16.90
2022-07-27T00:42:04.911Z,16.90
2022-07-27T00:44:06.858Z,16.80
2022-07-27T00:46:08.755Z,16.90
2022-07-27T00:48:10.876Z,16.80
2022-07-27T00:50:12.716Z,16.80
2022-07-27T00:52:15.838Z,16.80
2022-07-27T00:54:18.754Z,16.80
2022-07-27T00:56:21.777Z,16.70
2022-07-27T00:58:24.070Z,16.60
2022-07-27T01:00:28.142Z,16.60
2022-07-27T01:02:30.097Z,16.60
2022-07-27T01:04:34.755Z,16.50
2022-07-27T01:06:37.824Z,16.50
2022-07-27T01:08:40.246Z,16.50
2022-07-27T01:10:43.297Z,16.40
2022-07-27T01:12:46.303Z,16.30
2022-07-27T01:14:49.341Z,16.30
2022-07-27T01:16:51.977Z,16.30
2022-07-27T01:18:54.360Z,16.20
2022-07-27T01:20:56.755Z,16.20
2022-07-27T01:22:58.752Z,16.10
2022-07-27T01:25:00.572Z,16.10
2022-07-27T01:27:03.538Z,16.10
2022-07-27T01:29:06.045Z,16.10
2022-07-27T01:31:08.152Z,16.00
2022-07-27T01:33:10.641Z,16.00
2022-07-27T01:35:12.501Z,15.90
2022-07-27T01:37:14.285Z,15.90
2022-07-27T01:39:18.510Z,15.80
2022-07-27T01:41:20.280Z,15.80
2022-07-27T01:43:22.853Z,15.70
2022-07-27T01:45:24.926Z,15.60
2022-07-27T01:47:27.378Z,15.60
2022-07-27T01:49:29.581Z,15.50
2022-07-27T01:51:31.799Z,15.40
2022-07-27T01:53:33.852Z,15.40
2022-07-27T01:55:38.499Z,15.30
2022-07-27T01:57:41.107Z,15.30
2022-07-27T01:59:43.998Z,15.30
2022-07-27T02:01:45.858Z,15.30
2022-07-27T02:03:47.819Z,15.30
2022-07-27T02:05:50.302Z,15.20
2022-07-27T02:07:52.235Z,15.10
2022-07-27T02:09:54.088Z,15.00
2022-07-27T02:12:14.326Z,15.00
2022-07-27T02:14:16.749Z,14.90
2022-07-27T02:16:19.673Z,14.80
2022-07-27T02:18:35.847Z,14.80
2022-07-27T02:20:42.223Z,14.70
2022-07-27T02:22:45.179Z,14.70
2022-07-27T02:24:46.920Z,14.80
2022-07-27T02:26:49.497Z,14.80
2022-07-27T02:28:51.564Z,14.90
2022-07-27T02:30:53.810Z,15.00
2022-07-27T02:32:55.962Z,15.00
2022-07-27T02:34:58.368Z,15.00
2022-07-27T02:37:00.653Z,15.00
2022-07-27T02:39:02.499Z,15.00
2022-07-27T02:41:04.448Z,14.90
2022-07-27T02:43:06.938Z,14.80
2022-07-27T02:45:09.452Z,14.80
2022-07-27T02:47:11.596Z,14.70
2022-07-27T02:49:14.303Z,14.60
2022-07-27T02:51:16.642Z,14.60
2022-07-27T02:53:18.452Z,14.60
2022-07-27T02:55:20.168Z,14.60
2022-07-27T02:57:22.034Z,14.70
2022-07-27T02:59:23.926Z,14.70
2022-07-27T03:01:26.642Z,14.70
2022-07-27T03:03:35.905Z,14.70
2022-07-27T03:05:39.451Z,14.70
2022-07-27T03:07:41.380Z,14.70
2022-07-27T03:09:43.679Z,14.70
2022-07-27T03:11:45.699Z,14.60
2022-07-27T03:13:47.759Z,14.60
2022-07-27T03:15:49.841Z,14.60
2022-07-27T03:17:51.964Z,14.50
2022-07-27T03:19:53.760Z,14.50
2022-07-27T03:21:56.655Z,14.40
2022-07-27T03:23:59.799Z,14.40
2022-07-27T03:26:01.753Z,14.30
2022-07-27T03:28:04.555Z,14.30
2022-07-27T03:30:09.387Z,14.20
2022-07-27T03:32:11.383Z,14.10
2022-07-27T03:34:13.215Z,14.00
2022-07-27T03:36:14.974Z,14.00
2022-07-27T03:38:17.630Z,14.00
2022-07-27T03:40:19.543Z,14.00
2022-07-27T03:42:23.874Z,14.00
2022-07-27T03:44:26.089Z,14.00
2022-07-27T03:46:28.040Z,14.00
2022-07-27T03:48:29.870Z,13.90
2022-07-27T03:50:32.519Z,13.90
2022-07-27T03:52:34.181Z,13.90
2022-07-27T03:54:35.885Z,14.00
2022-07-27T03:56:37.707Z,14.00
2022-07-27T03:58:39.381Z,14.10
2022-07-27T04:00:42.574Z,14.20
2022-07-27T04:02:44.332Z,14.40
2022-07-27T04:04:46.134Z,14.50
2022-07-27T04:06:47.983Z,14.60
2022-07-27T04:08:49.649Z,14.70
2022-07-27T04:10:52.486Z,14.70
2022-07-27T04:12:54.208Z,14.80
2022-07-27T04:14:55.939Z,14.80
2022-07-27T04:16:57.718Z,14.90
2022-07-27T04:18:59.705Z,14.90
2022-07-27T04:21:03.353Z,15.00
2022-07-27T04:23:05.068Z,15.00
2022-07-27T04:25:08.162Z,15.00
2022-07-27T04:27:09.829Z,15.00
2022-07-27T04:29:19.649Z,15.10
2022-07-27T04:31:23.164Z,15.10
2022-07-27T04:33:24.991Z,15.10
2022-07-27T04:35:26.983Z,15.20
2022-07-27T04:37:28.817Z,15.20
2022-07-27T04:39:31.154Z,15.20
2022-07-27T04:41:33.079Z,15.20
2022-07-27T04:43:37.298Z,15.30
2022-07-27T04:45:39.234Z,15.30
2022-07-27T04:47:40.935Z,15.30
2022-07-27T04:49:42.640Z,15.40
2022-07-27T04:51:44.978Z,15.50
2022-07-27T04:53:53.512Z,15.60
2022-07-27T04:56:00.343Z,15.60
2022-07-27T04:58:02.218Z,15.70
2022-07-27T05:00:05.407Z,15.80
2022-07-27T05:02:07.086Z,15.90
2022-07-27T05:04:10.213Z,16.00
2022-07-27T05:06:12.448Z,16.10
2022-07-27T05:08:14.116Z,16.20
2022-07-27T05:10:19.967Z,16.30
2022-07-27T05:12:22.421Z,16.30
2022-07-27T05:14:24.177Z,16.50
2022-07-27T05:16:28.827Z,16.60
2022-07-27T05:18:30.859Z,16.60
2022-07-27T05:20:32.861Z,16.70
2022-07-27T05:22:39.152Z,16.80
2022-07-27T05:24:42.336Z,16.90
2022-07-27T05:26:44.103Z,16.90
2022-07-27T05:28:45.801Z,17.00
2022-07-27T05:30:49.485Z,17.10
2022-07-27T05:32:51.754Z,17.10
2022-07-27T05:34:53.655Z,17.20
2022-07-27T05:36:55.344Z,17.30
2022-07-27T05:38:57.049Z,17.40
2022-07-27T05:40:58.744Z,17.40
2022-07-27T05:43:01.204Z,17.50
2022-07-27T05:45:03.114Z,17.50
2022-07-27T05:47:05.956Z,17.50
2022-07-27T05:49:10.678Z,17.60
2022-07-27T05:51:12.978Z,17.60
2022-07-27T05:53:15.296Z,17.50
2022-07-27T05:55:18.312Z,17.50
2022-07-27T05:57:20.178Z,17.60
2022-07-27T05:59:22.069Z,17.70
2022-07-27T06:01:24.434Z,17.80
2022-07-27T06:03:26.789Z,17.90
2022-07-27T06:05:31.008Z,17.90
2022-07-27T06:07:51.513Z,18.00
2022-07-27T06:09:53.199Z,18.20
2022-07-27T06:11:54.922Z,18.20
2022-07-27T06:13:57.052Z,18.20
2022-07-27T06:15:58.799Z,18.30
2022-07-27T06:18:01.155Z,18.30
2022-07-27T06:20:04.784Z,18.40
2022-07-27T06:22:07.283Z,18.50
2022-07-27T06:24:09.036Z,18.60
2022-07-27T06:26:10.778Z,18.70
2022-07-27T06:28:12.600Z,18.70
2022-07-27T06:30:16.829Z,18.80
2022-07-27T06:32:18.999Z,18.80
2022-07-27T06:34:21.166Z,18.80
2022-07-27T06:36:24.670Z,18.90
2022-07-27T06:38:28.581Z,19.00
2022-07-27T06:40:32.130Z,19.00
2022-07-27T06:42:33.830Z,19.10
2022-07-27T06:44:35.518Z,19.10
2022-07-27T06:46:37.295Z,19.10
2022-07-27T06:48:40.498Z,19.30
2022-07-27T06:50:43.201Z,19.40
2022-07-27T06:52:44.929Z,19.50
2022-07-27T06:54:46.645Z,19.60
2022-07-27T06:56:48.350Z,19.70
2022-07-27T06:58:51.129Z,19.80
2022-07-27T07:00:52.859Z,20.00
2022-07-27T07:03:00.139Z,19.90
2022-07-27T07:05:01.843Z,19.90
2022-07-27T07:07:07.329Z,20.10
2022-07-27T07:09:09.484Z,20.40
2022-07-27T07:11:13.974Z,20.60
2022-07-27T07:13:16.399Z,20.70
2022-07-27T07:15:19.019Z,21.00
2022-07-27T07:17:20.669Z,21.20
2022-07-27T07:19:22.403Z,21.60
2022-07-27T07:21:24.100Z,21.90
2022-07-27T07:23:25.794Z,22.10
2022-07-27T07:25:28.111Z,22.90
2022-07-27T07:27:29.891Z,23.50
2022-07-27T07:29:31.602Z,24.20
2022-07-27T07:31:33.324Z,24.50
2022-07-27T07:33:35.041Z,24.70
2022-07-27T07:35:36.761Z,24.80
2022-07-27T07:37:39.606Z,25.00
2022-07-27T07:39:41.401Z,25.00
2022-07-27T07:41:44.219Z,25.70
2022-07-27T07:43:45.922Z,25.80
2022-07-27T07:45:51.432Z,25.60
2022-07-27T07:47:54.633Z,25.60
2022-07-27T07:49:57.904Z,25.70
2022-07-27T07:52:00.658Z,25.80
2022-07-27T07:54:03.676Z,25.90
2022-07-27T07:56:05.619Z,25.50
2022-07-27T07:58:07.777Z,25.50
2022-07-27T08:00:10.359Z,25.40
2022-07-27T08:02:12.152Z,25.40
2022-07-27T08:04:13.896Z,25.10
2022-07-27T08:06:16.290Z,25.10
2022-07-27T08:08:18.040Z,25.20
2022-07-27T08:10:22.046Z,25.40
2022-07-27T08:12:23.805Z,25.60
2022-07-27T08:14:26.448Z,25.70
2022-07-27T08:16:28.205Z,26.00
2022-07-27T08:18:29.929Z,26.10
2022-07-27T08:20:31.797Z,26.10
2022-07-27T08:22:33.883Z,26.20
2022-07-27T08:24:35.765Z,26.40
2022-07-27T08:26:37.488Z,26.40
2022-07-27T08:28:39.189Z,26.50
2022-07-27T08:30:41.931Z,25.90
2022-07-27T08:32:54.840Z,25.70
2022-07-27T08:34:56.966Z,25.80
2022-07-27T08:36:58.731Z,26.00
2022-07-27T08:39:04.300Z,25.80
2022-07-27T08:41:08.114Z,25.40
2022-07-27T08:43:12.893Z,25.80
2022-07-27T08:45:17.893Z,26.10
2022-07-27T08:47:21.248Z,26.00
2022-07-27T08:49:32.317Z,26.30
2022-07-27T08:51:47.393Z,26.50
2022-07-27T08:53:54.098Z,25.90
2022-07-27T08:55:57.908Z,26.00
2022-07-27T08:58:03.017Z,26.50
2022-07-27T09:00:06.577Z,26.70
2022-07-27T09:02:11.910Z,27.10
2022-07-27T09:04:13.644Z,27.60
2022-07-27T09:06:53.365Z,27.90
2022-07-27T09:08:59.724Z,28.10
2022-07-27T09:11:03.529Z,28.00
2022-07-27T09:13:23.403Z,28.30
2022-07-27T09:15:34.231Z,28.20
2022-07-27T09:17:52.311Z,28.10
2022-07-27T09:20:00.188Z,28.40
2022-07-27T09:22:02.312Z,28.80
2022-07-27T09:24:17.951Z,28.70
2022-07-27T09:26:34.076Z,28.70
2022-07-27T09:28:36.511Z,28.00
2022-07-27T09:30:42.881Z,27.20
2022-07-27T09:32:59.586Z,27.40
2022-07-27T09:35:23.236Z,27.30
2022-07-27T09:37:27.395Z,27.50
2022-07-27T09:39:29.691Z,28.30
2022-07-27T09:41:45.844Z,29.00
2022-07-27T09:46:27.956Z,29.10
2022-07-27T09:48:35.796Z,28.90
2022-07-27T09:50:53.102Z,28.80
2022-07-27T09:53:41.845Z,29.00
2022-07-27T09:55:41.735Z,29.20
2022-07-27T09:57:53.326Z,29.90
2022-07-27T10:00:14.774Z,30.10
2022-07-27T10:02:16.892Z,29.60
2022-07-27T10:04:18.778Z,29.60
2022-07-27T10:06:21.026Z,29.50
2022-07-27T10:08:27.972Z,29.70
2022-07-27T10:10:29.777Z,29.60
2022-07-27T10:12:32.389Z,30.40
2022-07-27T10:14:35.182Z,30.60
2022-07-27T10:16:39.961Z,30.60
2022-07-27T10:18:43.744Z,30.60
2022-07-27T10:20:53.099Z,30.60
2022-07-27T10:22:58.552Z,29.70
2022-07-27T10:25:00.698Z,29.90
2022-07-27T10:27:26.320Z,30.30
2022-07-27T10:29:28.003Z,30.90
2022-07-27T10:31:39.584Z,32.00
2022-07-27T10:33:43.765Z,31.80
2022-07-27T10:35:45.740Z,31.60
2022-07-27T10:38:07.186Z,32.10
2022-07-27T10:40:34.448Z,31.60
2022-07-27T10:42:36.231Z,30.40
2022-07-27T10:44:52.329Z,29.20
2022-07-27T10:46:55.707Z,29.00
2022-07-27T10:49:20.669Z,29.40
2022-07-27T10:51:35.071Z,31.00
2022-07-27T10:54:10.431Z,32.30
2022-07-27T10:56:02.415Z,32.80
2022-07-27T10:58:14.020Z,33.10
2022-07-27T11:00:19.669Z,33.10
2022-07-27T11:02:41.492Z,32.00
2022-07-27T11:04:51.944Z,32.30
2022-07-27T11:11:48.246Z,33.10
2022-07-27T11:13:54.029Z,32.60
2022-07-27T11:16:23.461Z,32.40
2022-07-27T11:18:33.455Z,32.40
2022-07-27T11:20:37.152Z,32.60
2022-07-27T11:25:02.686Z,31.30
2022-07-27T11:27:17.008Z,30.10
2022-07-27T11:29:21.955Z,28.90
2022-07-27T11:31:45.238Z,28.30
2022-07-27T11:33:54.118Z,27.10
2022-07-27T11:35:59.022Z,26.20
2022-07-27T11:38:06.481Z,25.70
2022-07-27T11:40:53.325Z,25.80
2022-07-27T11:42:40.383Z,26.10
2022-07-27T11:44:46.192Z,26.90
2022-07-27T11:46:50.314Z,28.00
2022-07-27T11:49:07.226Z,29.40
2022-07-27T11:51:10.033Z,29.70
2022-07-27T11:53:11.859Z,30.40
2022-07-27T11:55:13.801Z,30.20
2022-07-27T11:57:16.977Z,30.70
2022-07-27T11:59:20.850Z,30.30
2022-07-27T12:01:29.669Z,29.50
2022-07-27T12:03:47.289Z,28.80
2022-07-27T12:05:57.152Z,28.30
2022-07-27T12:07:59.031Z,29.10
2022-07-27T12:10:06.760Z,30.40
2022-07-27T12:12:19.565Z,31.00
2022-07-27T12:14:47.933Z,31.30
2022-07-27T12:16:50.403Z,30.00
2022-07-27T12:18:52.153Z,28.90
2022-07-27T12:20:54.515Z,28.20
2022-07-27T12:22:56.451Z,27.60
2022-07-27T12:24:59.921Z,27.20
2022-07-27T12:27:13.948Z,27.10
2022-07-27T12:29:17.993Z,26.90
2022-07-27T12:31:20.833Z,27.30
2022-07-27T12:33:33.830Z,27.60
2022-07-27T12:35:46.975Z,27.30
2022-07-27T12:37:59.691Z,27.00
2022-07-27T12:40:02.261Z,26.70
2022-07-27T12:42:06.330Z,26.70
2022-07-27T12:44:09.199Z,26.30
2022-07-27T12:46:12.962Z,26.20
2022-07-27T12:48:23.250Z,26.20
2022-07-27T12:50:28.635Z,26.20
2022-07-27T12:52:30.844Z,26.20
2022-07-27T12:54:32.793Z,26.60
2022-07-27T12:56:35.292Z,27.40
2022-07-27T12:58:37.586Z,28.30
2022-07-27T13:00:39.626Z,29.10
2022-07-27T13:02:41.493Z,29.90
2022-07-27T13:04:44.499Z,31.40
2022-07-27T13:06:47.399Z,31.90
2022-07-27T13:08:49.595Z,31.80
2022-07-27T13:10:54.084Z,31.70
2022-07-27T13:12:55.899Z,31.60
2022-07-27T13:14:57.719Z,31.50
2022-07-27T13:16:59.674Z,31.90
2022-07-27T13:19:01.427Z,32.20
2022-07-27T13:21:04.126Z,33.00
2022-07-27T13:23:08.849Z,33.70
2022-07-27T13:25:15.685Z,32.80
2022-07-27T13:27:19.098Z,31.70
2022-07-27T13:29:20.853Z,30.50
2022-07-27T13:31:22.593Z,30.50
2022-07-27T13:33:25.275Z,30.50
2022-07-27T13:35:27.355Z,30.50
2022-07-27T13:37:29.063Z,31.00
2022-07-27T13:39:34.413Z,32.00
2022-07-27T13:41:37.048Z,31.80
2022-07-27T13:43:39.182Z,31.60
2022-07-27T13:45:43.197Z,32.40
2022-07-27T13:47:46.532Z,32.30
2022-07-27T13:49:48.321Z,32.70
2022-07-27T13:51:50.079Z,32.30
2022-07-27T13:53:51.962Z,32.60
2022-07-27T13:55:53.736Z,33.20
2022-07-27T13:57:55.474Z,32.70
2022-07-27T13:59:59.701Z,32.30
2022-07-27T14:02:01.606Z,31.60
2022-07-27T14:04:07.592Z,30.40
2022-07-27T14:06:09.771Z,30.00
2022-07-27T14:08:12.282Z,29.40
2022-07-27T14:10:32.797Z,28.90
2022-07-27T14:12:34.574Z,28.80
2022-07-27T14:14:36.461Z,29.50
2022-07-27T14:16:38.940Z,30.20
2022-07-27T14:18:40.726Z,30.70
2022-07-27T14:20:42.790Z,31.40
2022-07-27T14:22:46.108Z,32.10
2022-07-27T14:24:47.891Z,31.90
2022-07-27T14:26:50.114Z,32.30
2022-07-27T14:28:54.579Z,32.60
2022-07-27T14:30:57.034Z,31.70
2022-07-27T14:33:02.847Z,31.20
2022-07-27T14:35:06.056Z,31.50
2022-07-27T14:37:09.426Z,31.70
2022-07-27T14:39:11.405Z,32.00
2022-07-27T14:41:13.601Z,31.80
2022-07-27T14:43:16.798Z,32.30
2022-07-27T14:45:19.800Z,32.70
2022-07-27T14:47:21.493Z,32.60
2022-07-27T14:49:25.337Z,32.60
2022-07-27T14:51:27.335Z,32.10
2022-07-27T14:53:29.080Z,31.50
2022-07-27T14:55:31.175Z,31.70
2022-07-27T14:57:33.678Z,31.90
2022-07-27T14:59:35.950Z,32.30
2022-07-27T15:01:39.706Z,32.20
2022-07-27T15:03:41.518Z,32.10
2022-07-27T15:05:50.122Z,31.90
2022-07-27T15:07:53.106Z,31.70
2022-07-27T15:09:54.959Z,31.20
2022-07-27T15:11:57.784Z,31.10
2022-07-27T15:14:00.314Z,30.20
2022-07-27T15:16:07.019Z,29.20
2022-07-27T15:18:08.992Z,28.60
2022-07-27T15:20:11.970Z,28.70
2022-07-27T15:22:14.927Z,28.70
2022-07-27T15:24:17.464Z,28.60
2022-07-27T15:26:19.239Z,28.90
2022-07-27T15:28:20.983Z,28.60
2022-07-27T15:30:22.714Z,28.30
2022-07-27T15:32:24.554Z,28.30
2022-07-27T15:34:28.904Z,28.10
2022-07-27T15:36:32.538Z,28.20
2022-07-27T15:38:36.417Z,28.90
2022-07-27T15:40:39.281Z,29.20
2022-07-27T15:42:41.332Z,29.40
2022-07-27T15:44:43.410Z,29.40
2022-07-27T15:46:45.370Z,28.90
2022-07-27T15:48:47.322Z,28.80
2022-07-27T15:50:52.712Z,28.60
2022-07-27T15:52:54.420Z,28.60
2022-07-27T15:54:56.836Z,28.40
2022-07-27T15:56:58.759Z,28.60
2022-07-27T15:59:00.469Z,29.00
2022-07-27T16:01:03.078Z,29.30
2022-07-27T16:03:06.693Z,29.60
2022-07-27T16:05:08.931Z,29.90
2022-07-27T16:07:10.970Z,30.00
2022-07-27T16:09:13.837Z,29.50
2022-07-27T16:11:15.795Z,28.90
2022-07-27T16:13:17.537Z,28.30
2022-07-27T16:15:19.234Z,28.20
2022-07-27T16:17:20.933Z,27.70
2022-07-27T16:19:22.579Z,27.20
2022-07-27T16:21:25.522Z,26.80
2022-07-27T16:26:43.766Z,26.60
2022-07-27T16:28:47.394Z,26.50
2022-07-27T16:30:49.656Z,26.50
2022-07-27T16:32:51.371Z,27.00
2022-07-27T16:34:53.053Z,27.40
2022-07-27T16:36:55.871Z,27.90
2022-07-27T16:38:57.613Z,28.20
2022-07-27T16:40:59.944Z,28.50
2022-07-27T16:43:01.655Z,28.90
2022-07-27T16:45:04.177Z,29.00
2022-07-27T16:47:06.935Z,28.40
2022-07-27T16:49:09.767Z,28.30
2022-07-27T16:51:13.403Z,28.00
2022-07-27T16:53:15.362Z,27.90
2022-07-27T16:55:17.183Z,28.00
2022-07-27T16:57:19.454Z,28.20
2022-07-27T17:05:53.364Z,28.00
2022-07-27T17:07:55.130Z,27.80
2022-07-27T17:16:29.055Z,27.80
2022-07-27T17:18:37.158Z,27.90
2022-07-27T17:20:41.498Z,27.80
2022-07-27T17:22:43.180Z,27.90
2022-07-27T17:24:44.890Z,27.70
2022-07-27T17:26:46.572Z,27.50
2022-07-27T17:28:48.241Z,27.00
2022-07-27T17:30:49.957Z,26.70
2022-07-27T17:32:53.265Z,26.50
2022-07-27T17:34:55.002Z,26.40
2022-07-27T17:36:56.976Z,26.10
2022-07-27T17:39:00.274Z,25.90
2022-07-27T17:41:02.071Z,25.60
2022-07-27T17:43:03.789Z,25.30
2022-07-27T17:45:06.334Z,25.00
2022-07-27T17:47:08.150Z,24.70
2022-07-27T17:49:11.537Z,24.30
2022-07-27T17:51:14.493Z,23.90
2022-07-27T17:53:16.216Z,23.60
2022-07-27T17:55:17.908Z,23.30
2022-07-27T17:57:19.611Z,23.10
2022-07-27T17:59:38.418Z,22.80
2022-07-27T18:01:47.371Z,22.70
2022-07-27T18:03:50.197Z,22.50
2022-07-27T18:05:54.316Z,22.40
2022-07-27T18:07:56.382Z,22.40
2022-07-27T18:09:58.409Z,22.30
2022-07-27T18:12:00.122Z,22.30
2022-07-27T18:14:01.929Z,22.20
2022-07-27T18:16:03.846Z,22.20
2022-07-27T18:18:06.028Z,22.10
2022-07-27T18:20:09.715Z,22.00
2022-07-27T18:22:11.383Z,21.90
2022-07-27T18:24:13.122Z,21.80
2022-07-27T18:26:14.926Z,21.70
2022-07-27T18:28:17.163Z,21.60
2022-07-27T18:30:19.283Z,21.50
2022-07-27T18:32:22.478Z,21.40
2022-07-27T18:34:24.458Z,21.30
2022-07-27T18:36:26.224Z,21.20
2022-07-27T18:38:29.416Z,21.10
2022-07-27T18:40:31.330Z,20.90
2022-07-27T18:42:33.088Z,20.80
2022-07-27T18:44:38.786Z,20.80
2022-07-27T18:46:41.996Z,20.70
2022-07-27T18:48:46.722Z,20.70
2022-07-27T18:50:48.767Z,20.60
2022-07-27T18:52:50.459Z,20.60
2022-07-27T18:54:52.175Z,20.50
2022-07-27T18:56:57.838Z,20.40
2022-07-27T18:58:59.527Z,20.40
2022-07-27T19:01:02.081Z,20.30
2022-07-27T19:03:04.085Z,20.20
2022-07-27T19:05:08.617Z,20.10
2022-07-27T19:07:14.366Z,19.90
2022-07-27T19:09:18.314Z,19.80
2022-07-27T19:11:20.311Z,19.70
2022-07-27T19:13:22.071Z,19.70
2022-07-27T19:15:23.921Z,19.60
2022-07-27T19:17:25.714Z,19.60
2022-07-27T19:19:28.114Z,19.50
2022-07-27T19:21:30.846Z,19.50
2022-07-27T19:23:32.600Z,19.40
2022-07-27T19:25:34.533Z,19.40
2022-07-27T19:27:38.284Z,19.40
2022-07-27T19:29:40.993Z,19.30
2022-07-27T19:31:42.707Z,19.30
2022-07-27T19:33:44.508Z,19.20
2022-07-27T19:35:47.199Z,19.30
2022-07-27T19:37:48.917Z,19.10
2022-07-27T19:40:02.534Z,19.10
2022-07-27T19:42:11.444Z,19.10
2022-07-27T19:44:13.183Z,19.00
2022-07-27T19:46:15.246Z,19.10
2022-07-27T19:48:17.024Z,19.00
2022-07-27T19:50:18.815Z,19.10
2022-07-27T19:52:21.427Z,19.10
2022-07-27T19:54:23.240Z,19.10
2022-07-27T19:56:24.906Z,19.00
2022-07-27T19:58:26.737Z,19.00
2022-07-27T20:00:28.788Z,18.90
2022-07-27T20:02:30.672Z,18.90
2022-07-27T20:04:32.831Z,18.90
2022-07-27T20:06:36.381Z,18.80
2022-07-27T20:08:38.174Z,18.70
2022-07-27T20:10:40.657Z,18.70
2022-07-27T20:12:42.331Z,18.70
2022-07-27T20:14:44.017Z,18.60
2022-07-27T20:16:45.788Z,18.70
2022-07-27T20:18:47.925Z,18.60
2022-07-27T20:20:49.654Z,18.60
2022-07-27T20:22:52.006Z,18.70
2022-07-27T20:24:53.703Z,18.70
2022-07-27T20:26:56.919Z,18.80
2022-07-27T20:28:59.801Z,18.80
2022-07-27T20:31:01.903Z,18.90
2022-07-27T20:33:03.798Z,18.90
2022-07-27T20:35:07.415Z,18.90
2022-07-27T20:37:09.130Z,18.90
2022-07-27T20:39:15.455Z,18.90
2022-07-27T20:41:19.131Z,19.00
2022-07-27T20:43:20.815Z,19.00
2022-07-27T20:45:22.489Z,19.00
2022-07-27T20:47:24.187Z,19.00
2022-07-27T20:49:25.972Z,19.00
2022-07-27T20:51:28.002Z,19.00
2022-07-27T20:53:29.675Z,18.90
2022-07-27T20:55:32.505Z,18.80
2022-07-27T20:57:34.371Z,18.80
2022-07-27T20:59:36.205Z,18.70
2022-07-27T21:01:38.009Z,18.70
2022-07-27T21:03:39.794Z,18.60
2022-07-27T21:05:41.590Z,18.50
2022-07-27T21:07:43.307Z,18.50
2022-07-27T21:09:45.768Z,18.40
2022-07-27T21:11:47.862Z,18.30
2022-07-27T21:13:49.592Z,18.30
2022-07-27T21:15:51.267Z,18.20
2022-07-27T21:17:52.929Z,18.20
2022-07-27T21:19:54.598Z,18.20
2022-07-27T21:21:56.286Z,18.10
2022-07-27T21:24:17.541Z,18.00
2022-07-27T21:26:20.206Z,17.90
2022-07-27T21:28:24.845Z,17.80
2022-07-27T21:30:26.787Z,17.80
2022-07-27T21:32:29.023Z,17.70
2022-07-27T21:34:30.729Z,17.70
2022-07-27T21:36:32.416Z,17.70
2022-07-27T21:38:34.138Z,17.70
2022-07-27T21:40:35.824Z,17.70
2022-07-27T21:42:37.502Z,17.60
2022-07-27T21:44:39.517Z,17.70
2022-07-27T21:46:41.616Z,17.70
2022-07-27T21:48:43.423Z,17.60
2022-07-27T21:50:45.160Z,17.60
2022-07-27T21:52:46.830Z,17.50
2022-07-27T21:54:48.568Z,17.50
2022-07-27T21:56:50.833Z,17.50
2022-07-27T21:58:52.551Z,17.50
2022-07-27T22:00:54.713Z,17.50
